createdAt,value
2019-05-23T00:00:30.946Z,15.07
2019-05-23T00:03:30.878Z,15.17
2019-05-23T00:06:22.917Z,15.12
2019-05-23T00:09:13.562Z,14.98
2019-05-23T00:11:47.163Z,15.05
2019-05-23T00:14:48.256Z,15.12
2019-05-23T00:17:21.363Z,15.27
2019-05-23T00:19:53.419Z,15.23
2019-05-23T00:22:25.159Z,15.24
2019-05-23T00:24:57.589Z,15.11
2019-05-23T00:27:30.612Z,15.14
2019-05-23T00:30:03.852Z,15.11
2019-05-23T00:32:38.588Z,15.13
2019-05-23T00:35:10.405Z,15.16
2019-05-23T00:37:43.456Z,15.12
2019-05-23T00:40:16.877Z,15.09
2019-05-23T00:42:47.656Z,15.10
2019-05-23T00:45:21.232Z,15.24
2019-05-23T00:47:53.176Z,15.16
2019-05-23T00:50:26.628Z,15.18
2019-05-23T00:52:58.206Z,15.09
2019-05-23T00:55:29.973Z,15.10
2019-05-23T00:58:03.048Z,15.17
2019-05-23T01:00:35.307Z,15.12
2019-05-23T01:03:07.914Z,15.15
2019-05-23T01:05:39.847Z,15.05
2019-05-23T01:08:12.742Z,15.07
2019-05-23T01:10:44.941Z,15.09
2019-05-23T01:13:16.798Z,15.05
2019-05-23T01:15:49.248Z,15.15
2019-05-23T01:18:21.660Z,15.13
2019-05-23T01:21:01.498Z,15.11
2019-05-23T01:23:40.930Z,15.15
2019-05-23T01:26:12.699Z,15.17
2019-05-23T01:28:45.463Z,15.07
2019-05-23T01:31:22.150Z,15.03
2019-05-23T01:33:56.915Z,15.05
2019-05-23T01:36:29.939Z,15.10
2019-05-23T01:39:02.941Z,15.06
2019-05-23T01:41:35.287Z,15.01
2019-05-23T01:44:08.427Z,15.11
2019-05-23T01:46:42.887Z,15.05
2019-05-23T01:49:15.445Z,15.06
2019-05-23T01:51:46.996Z,15.07
2019-05-23T01:54:19.530Z,15.05
2019-05-23T01:56:51.691Z,15.04
2019-05-23T01:59:24.139Z,15.04
2019-05-23T02:01:55.703Z,15.03
2019-05-23T02:04:27.696Z,14.95
2019-05-23T02:06:59.644Z,14.99
2019-05-23T02:09:31.236Z,14.96
2019-05-23T02:12:04.333Z,15.10
2019-05-23T02:14:37.884Z,15.20
2019-05-23T02:17:09.176Z,15.21
2019-05-23T02:19:40.544Z,15.22
2019-05-23T02:22:13.296Z,15.25
2019-05-23T02:24:45.023Z,15.25
2019-05-23T02:27:17.507Z,15.09
2019-05-23T02:29:49.473Z,15.19
2019-05-23T02:32:23.171Z,15.27
2019-05-23T02:34:55.978Z,15.14
2019-05-23T02:37:29.166Z,15.12
2019-05-23T02:40:05.113Z,15.16
2019-05-23T02:42:41.371Z,15.07
2019-05-23T02:45:16.632Z,15.12
2019-05-23T02:47:51.463Z,15.19
2019-05-23T02:50:26.508Z,15.21
2019-05-23T02:52:59.923Z,15.39
2019-05-23T02:55:35.486Z,15.35
2019-05-23T02:58:18.209Z,15.35
2019-05-23T03:01:30.528Z,15.43
2019-05-23T03:04:05.084Z,15.39
2019-05-23T03:06:38.245Z,15.31
2019-05-23T03:09:12.217Z,15.39
2019-05-23T03:11:44.691Z,15.33
2019-05-23T03:14:19.300Z,15.46
2019-05-23T03:16:55.133Z,15.28
2019-05-23T03:19:32.466Z,15.34
2019-05-23T03:22:25.898Z,15.48
2019-05-23T03:25:01.055Z,15.47
2019-05-23T03:27:39.965Z,15.31
2019-05-23T03:30:13.216Z,15.41
2019-05-23T03:32:45.964Z,15.30
2019-05-23T03:35:25.069Z,15.32
2019-05-23T03:37:57.557Z,15.40
2019-05-23T03:40:30.615Z,15.45
2019-05-23T03:43:02.356Z,15.51
2019-05-23T03:45:39.552Z,15.54
2019-05-23T03:48:11.233Z,15.54
2019-05-23T03:50:44.551Z,15.70
2019-05-23T03:53:15.300Z,15.84
2019-05-23T03:55:48.250Z,16.12
2019-05-23T03:58:21.432Z,16.96
2019-05-23T04:00:58.016Z,17.08
2019-05-23T04:03:30.492Z,16.51
2019-05-23T04:06:02.208Z,16.33
2019-05-23T04:08:34.269Z,16.57
2019-05-23T04:11:06.209Z,16.61
2019-05-23T04:13:37.764Z,16.60
2019-05-23T04:16:09.547Z,16.54
2019-05-23T04:18:41.164Z,17.64
2019-05-23T04:21:13.210Z,17.93
2019-05-23T04:23:44.891Z,17.59
2019-05-23T04:26:16.434Z,17.64
2019-05-23T04:28:48.893Z,17.42
2019-05-23T04:31:20.526Z,16.90
2019-05-23T04:33:52.224Z,16.50
2019-05-23T04:36:23.869Z,16.86
2019-05-23T04:38:55.418Z,17.14
2019-05-23T04:41:26.964Z,16.66
2019-05-23T04:43:58.650Z,17.37
2019-05-23T04:46:31.488Z,17.10
2019-05-23T04:49:03.024Z,17.39
2019-05-23T04:51:35.269Z,17.37
2019-05-23T04:54:07.712Z,17.52
2019-05-23T04:56:40.049Z,17.37
2019-05-23T04:59:11.947Z,17.17
2019-05-23T05:01:43.812Z,17.03
2019-05-23T05:04:15.674Z,17.20
2019-05-23T05:06:47.338Z,17.16
2019-05-23T05:09:20.441Z,17.47
2019-05-23T05:11:52.315Z,17.91
2019-05-23T05:14:24.752Z,18.10
2019-05-23T05:16:56.716Z,18.11
2019-05-23T05:19:28.464Z,18.72
2019-05-23T05:22:00.141Z,18.78
2019-05-23T05:24:31.668Z,18.26
2019-05-23T05:27:04.778Z,18.91
2019-05-23T05:29:36.423Z,18.54
2019-05-23T05:32:10.564Z,18.97
2019-05-23T05:34:42.597Z,18.69
2019-05-23T05:37:14.119Z,18.73
2019-05-23T05:39:47.062Z,17.98
2019-05-23T05:42:19.337Z,18.50
2019-05-23T05:44:51.124Z,18.75
2019-05-23T05:47:23.157Z,18.87
2019-05-23T05:49:55.503Z,18.77
2019-05-23T05:52:27.218Z,18.63
2019-05-23T05:55:00.900Z,18.14
2019-05-23T05:57:32.230Z,18.05
2019-05-23T06:00:05.338Z,18.04
2019-05-23T06:02:37.483Z,17.81
2019-05-23T06:05:10.691Z,17.55
2019-05-23T06:07:42.504Z,17.88
2019-05-23T06:10:15.860Z,18.02
2019-05-23T06:12:47.395Z,18.15
2019-05-23T06:15:19.890Z,18.43
2019-05-23T06:17:51.862Z,18.69
2019-05-23T06:20:23.630Z,18.58
2019-05-23T06:22:55.558Z,18.31
2019-05-23T06:25:27.928Z,18.98
2019-05-23T06:28:01.405Z,18.64
2019-05-23T06:30:34.075Z,18.82
2019-05-23T06:33:21.821Z,18.95
2019-05-23T06:35:39.785Z,18.95
2019-05-23T06:38:11.648Z,18.27
2019-05-23T06:40:43.504Z,18.75
2019-05-23T06:43:15.897Z,18.84
2019-05-23T06:45:48.200Z,18.98
2019-05-23T06:48:22.259Z,19.15
2019-05-23T06:50:53.994Z,18.99
2019-05-23T06:53:25.763Z,18.91
2019-05-23T06:55:57.455Z,18.91
2019-05-23T06:58:29.748Z,18.62
2019-05-23T07:01:01.558Z,18.27
2019-05-23T07:03:42.601Z,18.38
2019-05-23T07:06:07.193Z,18.28
2019-05-23T07:08:39.006Z,18.52
2019-05-23T07:11:11.011Z,18.94
2019-05-23T07:13:43.288Z,19.25
2019-05-23T07:16:15.374Z,19.61
2019-05-23T07:18:47.036Z,19.81
2019-05-23T07:21:19.910Z,19.52
2019-05-23T07:23:51.807Z,19.55
2019-05-23T07:26:23.469Z,19.61
2019-05-23T07:28:58.327Z,19.14
2019-05-23T07:31:31.523Z,19.21
2019-05-23T07:34:03.287Z,19.01
2019-05-23T07:36:35.771Z,19.18
2019-05-23T07:39:11.698Z,19.27
2019-05-23T07:41:42.753Z,19.18
2019-05-23T07:44:14.482Z,19.10
2019-05-23T07:46:46.515Z,19.56
2019-05-23T07:49:17.977Z,19.69
2019-05-23T07:51:49.628Z,19.88
2019-05-23T07:54:25.723Z,19.82
2019-05-23T07:56:57.526Z,20.12
2019-05-23T07:59:29.406Z,20.00
2019-05-23T08:02:05.433Z,20.30
2019-05-23T08:04:37.078Z,20.42
2019-05-23T08:07:10.403Z,20.47
2019-05-23T08:09:42.226Z,20.68
2019-05-23T08:12:14.020Z,21.03
2019-05-23T08:14:45.582Z,21.15
2019-05-23T08:17:17.772Z,21.58
2019-05-23T08:19:50.501Z,21.51
2019-05-23T08:22:21.721Z,21.67
2019-05-23T08:24:53.272Z,21.60
2019-05-23T08:27:24.833Z,21.03
2019-05-23T08:29:56.551Z,20.97
2019-05-23T08:32:27.905Z,20.00
2019-05-23T08:34:59.790Z,19.76
2019-05-23T08:37:31.303Z,20.38
2019-05-23T08:40:03.073Z,20.71
2019-05-23T08:42:35.062Z,20.66
2019-05-23T08:45:09.287Z,20.57
2019-05-23T08:47:41.752Z,20.58
2019-05-23T08:50:13.827Z,19.87
2019-05-23T08:52:45.240Z,19.87
2019-05-23T08:55:22.741Z,20.64
2019-05-23T08:57:58.171Z,20.38
2019-05-23T09:00:30.017Z,20.70
2019-05-23T09:03:03.935Z,20.89
2019-05-23T09:05:37.032Z,21.11
2019-05-23T09:08:09.654Z,20.92
2019-05-23T09:10:42.118Z,21.55
2019-05-23T09:13:13.886Z,21.34
2019-05-23T09:15:45.408Z,20.85
2019-05-23T09:18:17.014Z,20.90
2019-05-23T09:20:48.656Z,21.04
2019-05-23T09:23:20.366Z,20.53
2019-05-23T09:25:51.773Z,20.61
2019-05-23T09:28:23.668Z,20.63
2019-05-23T09:30:55.822Z,20.47
2019-05-23T09:33:27.297Z,20.42
2019-05-23T09:35:59.505Z,20.30
2019-05-23T09:38:30.956Z,20.62
2019-05-23T09:41:02.783Z,20.41
2019-05-23T09:43:34.181Z,20.47
2019-05-23T09:46:05.598Z,20.42
2019-05-23T09:48:38.112Z,20.34
2019-05-23T09:51:09.559Z,20.57
2019-05-23T09:53:46.726Z,20.87
2019-05-23T09:56:14.346Z,20.47
2019-05-23T09:58:45.743Z,20.73
2019-05-23T10:01:17.872Z,20.49
2019-05-23T10:03:49.481Z,20.61
2019-05-23T10:06:20.821Z,20.53
2019-05-23T10:08:52.223Z,20.49
2019-05-23T10:11:23.629Z,20.44
2019-05-23T10:13:55.066Z,20.37
2019-05-23T10:16:26.517Z,20.30
2019-05-23T10:18:57.935Z,20.23
2019-05-23T10:21:29.218Z,20.03
2019-05-23T10:24:00.453Z,20.33
2019-05-23T10:26:31.846Z,20.56
2019-05-23T10:29:03.259Z,20.21
2019-05-23T10:31:34.621Z,20.42
2019-05-23T10:34:06.161Z,20.51
2019-05-23T10:36:37.820Z,20.65
2019-05-23T10:39:11.848Z,20.61
2019-05-23T10:41:43.549Z,20.52
2019-05-23T10:44:15.253Z,20.60
2019-05-23T10:46:46.898Z,20.77
2019-05-23T10:49:18.266Z,20.96
2019-05-23T10:51:49.710Z,20.89
2019-05-23T10:54:21.918Z,20.81
2019-05-23T10:56:53.320Z,21.01
2019-05-23T10:59:24.710Z,21.01
2019-05-23T11:01:56.921Z,20.70
2019-05-23T11:04:28.960Z,20.83
2019-05-23T11:07:00.977Z,20.91
2019-05-23T11:09:37.937Z,21.31
2019-05-23T11:12:07.988Z,21.05
2019-05-23T11:14:39.742Z,21.32
2019-05-23T11:17:11.599Z,20.86
2019-05-23T11:19:43.334Z,21.12
2019-05-23T11:22:16.129Z,21.18
2019-05-23T11:24:48.612Z,21.13
2019-05-23T11:27:21.465Z,21.26
2019-05-23T11:29:53.089Z,21.35
2019-05-23T11:32:24.565Z,21.46
2019-05-23T11:34:56.159Z,21.38
2019-05-23T11:37:28.588Z,21.27
2019-05-23T11:40:00.768Z,21.38
2019-05-23T11:42:32.333Z,21.60
2019-05-23T11:45:04.369Z,21.70
2019-05-23T11:47:36.055Z,21.55
2019-05-23T11:50:07.737Z,22.08
2019-05-23T11:52:39.594Z,22.28
2019-05-23T11:55:11.324Z,21.92
2019-05-23T11:57:43.220Z,22.01
2019-05-23T12:00:16.556Z,21.84
2019-05-23T12:02:48.681Z,22.09
2019-05-23T12:05:25.300Z,22.58
2019-05-23T12:07:56.823Z,22.59
2019-05-23T12:10:30.171Z,22.04
2019-05-23T12:13:01.746Z,22.13
2019-05-23T12:15:35.221Z,22.24
2019-05-23T12:18:09.593Z,21.91
2019-05-23T12:20:40.997Z,21.67
2019-05-23T12:23:12.256Z,21.45
2019-05-23T12:25:43.602Z,21.80
2019-05-23T12:28:16.091Z,21.67
2019-05-23T12:30:48.075Z,22.27
2019-05-23T12:33:19.577Z,22.55
2019-05-23T12:35:52.685Z,22.40
2019-05-23T12:38:24.423Z,22.19
2019-05-23T12:40:56.216Z,22.18
2019-05-23T12:43:27.519Z,21.85
2019-05-23T12:45:58.822Z,22.00
2019-05-23T12:48:31.716Z,21.86
2019-05-23T12:51:16.726Z,21.55
2019-05-23T12:53:48.150Z,21.28
2019-05-23T12:56:19.819Z,21.20
2019-05-23T12:58:51.309Z,21.43
2019-05-23T13:01:22.760Z,21.54
2019-05-23T13:03:55.406Z,21.26
2019-05-23T13:06:27.009Z,21.49
2019-05-23T13:08:58.405Z,21.21
2019-05-23T13:11:30.508Z,21.38
2019-05-23T13:14:02.169Z,21.53
2019-05-23T13:16:33.839Z,21.70
2019-05-23T13:19:05.559Z,21.79
2019-05-23T13:21:36.756Z,22.06
2019-05-23T13:24:08.171Z,22.28
2019-05-23T13:26:39.933Z,22.32
2019-05-23T13:29:11.456Z,22.14
2019-05-23T13:31:43.200Z,22.13
2019-05-23T13:34:14.525Z,22.30
2019-05-23T13:36:45.976Z,22.39
2019-05-23T13:39:18.113Z,22.12
2019-05-23T13:41:49.276Z,22.13
2019-05-23T13:44:32.612Z,22.11
2019-05-23T13:46:54.009Z,22.12
2019-05-23T13:49:26.353Z,21.93
2019-05-23T13:51:57.787Z,21.84
2019-05-23T13:54:29.779Z,21.94
2019-05-23T13:57:01.439Z,22.05
2019-05-23T13:59:34.618Z,22.23
2019-05-23T14:02:08.830Z,21.99
2019-05-23T14:04:42.092Z,21.76
2019-05-23T14:07:14.981Z,21.66
2019-05-23T14:09:46.193Z,21.53
2019-05-23T14:12:21.862Z,21.63
2019-05-23T14:14:50.581Z,21.81
2019-05-23T14:17:26.295Z,21.96
2019-05-23T14:19:58.020Z,22.09
2019-05-23T14:22:31.419Z,22.21
2019-05-23T14:25:03.567Z,22.38
2019-05-23T14:27:52.558Z,22.12
2019-05-23T14:30:35.577Z,22.04
2019-05-23T14:33:12.897Z,22.11
2019-05-23T14:35:46.595Z,22.23
2019-05-23T14:38:30.317Z,22.15
2019-05-23T14:40:52.487Z,22.02
2019-05-23T14:43:26.680Z,22.02
2019-05-23T14:46:03.113Z,21.57
2019-05-23T14:48:37.202Z,21.64
2019-05-23T14:51:14.063Z,21.69
2019-05-23T14:54:14.202Z,21.28
2019-05-23T14:56:46.909Z,21.19
2019-05-23T14:59:19.064Z,21.38
2019-05-23T15:01:52.308Z,21.39
2019-05-23T15:04:24.794Z,21.68
2019-05-23T15:06:57.099Z,21.73
2019-05-23T15:09:29.344Z,21.73
2019-05-23T15:12:01.912Z,21.91
2019-05-23T15:14:34.455Z,21.64
2019-05-23T15:17:10.789Z,21.82
2019-05-23T15:19:45.297Z,22.04
2019-05-23T15:22:17.790Z,22.03
2019-05-23T15:24:50.251Z,21.93
2019-05-23T15:27:22.820Z,21.52
2019-05-23T15:29:55.223Z,21.48
2019-05-23T15:32:27.659Z,21.63
2019-05-23T15:34:59.963Z,21.65
2019-05-23T15:37:32.177Z,21.70
2019-05-23T15:40:05.424Z,21.67
2019-05-23T15:42:36.960Z,21.60
2019-05-23T15:45:09.741Z,21.77
2019-05-23T15:47:43.791Z,21.83
2019-05-23T15:50:18.195Z,21.87
2019-05-23T15:52:58.193Z,21.87
2019-05-23T15:55:34.742Z,21.37
2019-05-23T15:58:11.462Z,21.51
2019-05-23T16:00:51.336Z,21.50
2019-05-23T16:03:42.351Z,21.57
2019-05-23T16:06:25.523Z,21.52
2019-05-23T16:08:57.514Z,21.11
2019-05-23T16:11:29.589Z,21.09
2019-05-23T16:14:01.843Z,20.96
2019-05-23T16:16:34.615Z,20.95
2019-05-23T16:19:07.067Z,20.83
2019-05-23T16:21:40.330Z,20.69
2019-05-23T16:24:13.800Z,20.68
2019-05-23T16:26:46.658Z,20.72
2019-05-23T16:29:19.416Z,20.66
2019-05-23T16:31:51.620Z,20.69
2019-05-23T16:34:23.981Z,20.64
2019-05-23T16:36:56.196Z,20.63
2019-05-23T16:39:45.808Z,20.60
2019-05-23T16:42:03.047Z,20.52
2019-05-23T16:44:35.316Z,20.45
2019-05-23T16:47:07.711Z,20.42
2019-05-23T16:49:39.988Z,20.41
2019-05-23T16:52:12.331Z,20.35
2019-05-23T16:54:46.449Z,20.28
2019-05-23T16:57:32.670Z,20.21
2019-05-23T17:00:27.072Z,20.07
2019-05-23T17:03:07.010Z,20.04
2019-05-23T17:05:40.905Z,19.99
2019-05-23T17:08:20.731Z,19.96
2019-05-23T17:11:00.624Z,19.90
2019-05-23T17:13:34.538Z,19.85
2019-05-23T17:16:08.330Z,19.78
2019-05-23T17:18:45.018Z,19.71
2019-05-23T17:21:19.133Z,19.62
2019-05-23T17:24:06.255Z,19.57
2019-05-23T17:26:52.452Z,19.53
2019-05-23T17:29:26.577Z,19.49
2019-05-23T17:32:00.073Z,19.46
2019-05-23T17:34:32.433Z,19.40
2019-05-23T17:37:05.878Z,19.36
2019-05-23T17:39:38.588Z,19.36
2019-05-23T17:42:11.062Z,19.30
2019-05-23T17:44:43.457Z,19.29
2019-05-23T17:47:15.995Z,19.26
2019-05-23T17:49:48.209Z,19.22
2019-05-23T17:52:20.858Z,19.18
2019-05-23T17:54:53.177Z,19.14
2019-05-23T17:57:25.504Z,19.00
2019-05-23T17:59:57.866Z,18.93
2019-05-23T18:02:30.716Z,18.81
2019-05-23T18:05:03.839Z,18.78
2019-05-23T18:07:38.294Z,18.73
2019-05-23T18:10:11.333Z,18.68
2019-05-23T18:12:43.657Z,18.66
2019-05-23T18:15:16.902Z,18.61
2019-05-23T18:17:49.709Z,18.62
2019-05-23T18:20:22.669Z,18.54
2019-05-23T18:22:55.124Z,18.51
2019-05-23T18:25:27.740Z,18.49
2019-05-23T18:28:00.253Z,18.48
2019-05-23T18:30:34.714Z,18.50
2019-05-23T18:33:09.538Z,18.48
2019-05-23T18:35:41.998Z,18.45
2019-05-23T18:38:14.524Z,18.43
2019-05-23T18:41:01.743Z,18.42
2019-05-23T18:43:21.536Z,18.38
2019-05-23T18:45:55.657Z,18.36
2019-05-23T18:48:28.166Z,18.33
2019-05-23T18:51:00.872Z,18.26
2019-05-23T18:53:33.425Z,18.30
2019-05-23T18:56:05.849Z,18.28
2019-05-23T18:58:38.224Z,18.25
2019-05-23T19:01:15.131Z,18.20
2019-05-23T19:03:47.635Z,18.19
2019-05-23T19:06:20.714Z,18.15
2019-05-23T19:08:53.076Z,18.12
2019-05-23T19:11:25.698Z,18.08
2019-05-23T19:13:58.067Z,18.04
2019-05-23T19:16:31.657Z,18.02
2019-05-23T19:19:04.616Z,18.03
2019-05-23T19:21:36.792Z,18.03
2019-05-23T19:24:09.055Z,18.04
2019-05-23T19:26:41.837Z,18.05
2019-05-23T19:29:15.136Z,17.93
2019-05-23T19:31:47.745Z,17.86
2019-05-23T19:34:20.247Z,17.83
2019-05-23T19:36:52.891Z,17.76
2019-05-23T19:39:25.446Z,17.72
2019-05-23T19:41:57.748Z,17.73
2019-05-23T19:44:30.034Z,17.72
2019-05-23T19:47:03.127Z,17.68
2019-05-23T19:49:35.382Z,17.59
2019-05-23T19:52:11.049Z,17.59
2019-05-23T19:54:43.599Z,17.59
2019-05-23T19:57:16.128Z,17.59
2019-05-23T19:59:48.267Z,17.60
2019-05-23T20:02:38.672Z,17.58
2019-05-23T20:05:14.708Z,17.50
2019-05-23T20:07:47.459Z,17.52
2019-05-23T20:10:21.452Z,17.50
2019-05-23T20:12:53.682Z,17.49
2019-05-23T20:15:26.104Z,17.51
2019-05-23T20:17:58.439Z,17.53
2019-05-23T20:20:31.565Z,17.55
2019-05-23T20:23:03.737Z,17.58
2019-05-23T20:25:36.461Z,17.57
2019-05-23T20:28:09.228Z,17.55
2019-05-23T20:30:48.495Z,17.55
2019-05-23T20:33:20.677Z,17.52
2019-05-23T20:35:53.167Z,17.49
2019-05-23T20:38:26.229Z,17.42
2019-05-23T20:40:58.581Z,17.43
2019-05-23T20:43:30.886Z,17.42
2019-05-23T20:46:03.332Z,17.40
2019-05-23T20:48:36.421Z,17.37
2019-05-23T20:51:08.574Z,17.33
2019-05-23T20:53:40.842Z,17.26
2019-05-23T20:56:13.145Z,17.19
2019-05-23T20:58:45.251Z,17.07
2019-05-23T21:01:22.013Z,17.05
2019-05-23T21:03:54.924Z,17.10
2019-05-23T21:06:27.249Z,17.12
2019-05-23T21:08:59.583Z,17.10
2019-05-23T21:11:32.044Z,16.98
2019-05-23T21:14:04.612Z,16.89
2019-05-23T21:29:57.793Z,17.10
2019-05-23T21:32:30.464Z,16.93
2019-05-23T21:35:02.507Z,16.89
2019-05-23T21:37:35.055Z,16.80
2019-05-23T21:40:10.051Z,16.75
2019-05-23T21:42:47.678Z,16.71
2019-05-23T21:45:16.274Z,16.57
2019-05-23T21:47:48.500Z,16.61
2019-05-23T21:50:20.866Z,16.65
2019-05-23T21:52:53.263Z,16.58
2019-05-23T21:55:41.809Z,16.64
2019-05-23T21:58:14.967Z,16.65
2019-05-23T22:01:06.500Z,16.63
2019-05-23T22:03:45.297Z,16.66
2019-05-23T22:06:19.061Z,16.69
2019-05-23T22:08:52.077Z,16.67
2019-05-23T22:11:24.428Z,16.66
2019-05-23T22:13:56.957Z,16.63
2019-05-23T22:16:29.210Z,16.59
2019-05-23T22:19:01.590Z,16.57
2019-05-23T22:21:33.783Z,16.49
2019-05-23T22:24:07.705Z,16.47
2019-05-23T22:26:39.833Z,16.45
2019-05-23T22:29:12.327Z,16.44
2019-05-23T22:31:44.588Z,16.39
2019-05-23T22:34:21.068Z,16.35
2019-05-23T22:36:54.746Z,16.28
2019-05-23T22:39:27.448Z,16.33
2019-05-23T22:42:00.159Z,16.33
2019-05-23T22:44:32.153Z,16.37
2019-05-23T22:47:04.448Z,16.42
2019-05-23T22:49:36.774Z,16.44
2019-05-23T22:52:09.152Z,16.36
2019-05-23T22:54:41.813Z,16.30
2019-05-23T22:57:13.757Z,16.24
2019-05-23T22:59:45.939Z,16.33
2019-05-23T23:02:18.581Z,16.26
2019-05-23T23:04:51.006Z,16.26
2019-05-23T23:07:23.669Z,16.27
2019-05-23T23:09:55.951Z,16.27
2019-05-23T23:12:28.317Z,16.24
2019-05-23T23:15:00.587Z,16.26
2019-05-23T23:17:32.724Z,16.30
2019-05-23T23:20:07.407Z,16.25
2019-05-23T23:22:39.545Z,16.20
2019-05-23T23:25:11.917Z,16.18
2019-05-23T23:27:44.211Z,16.17
2019-05-23T23:30:18.487Z,16.15
2019-05-23T23:32:50.686Z,16.20
2019-05-23T23:35:22.815Z,16.21
2019-05-23T23:37:54.938Z,16.23
2019-05-23T23:40:27.537Z,16.10
2019-05-23T23:42:59.834Z,16.13
2019-05-23T23:45:50.188Z,16.06
2019-05-23T23:48:40.407Z,16.10
2019-05-23T23:51:30.472Z,16.12
2019-05-23T23:54:20.984Z,16.09
2019-05-23T23:57:11.204Z,16.13
2019-05-23T23:59:42.569Z,16.15
